Time;durP1;ratioP1;P1;durP2;ratioP2;P2;SDS_P1;SDS_P2;PMS_P1;PMS_P2;Temp;Humidity;BMP_temperature;BMP_pressure;BME280_temperature;BME280_humidity;BME280_pressure;Samples;Min_cycle;Max_cycle;Signal;HPM_P1;HPM_P2
2021/07/05 00:00:29;;;;;;;5.68;4.85;;;17.00;91.10;;;;;;2081057;28;20056;-82
2021/07/05 00:01:32;;;;;;;6.30;4.82;;;17.00;91.10;;;;;;2080696;28;20569;-82
2021/07/05 00:02:32;;;;;;;5.57;4.93;;;16.90;91.10;;;;;;2076492;28;20045;-82
2021/07/05 00:03:33;;;;;;;5.75;4.78;;;17.00;91.10;;;;;;2072190;28;20033;-82
2021/07/05 00:04:35;;;;;;;5.72;4.97;;;17.00;91.10;;;;;;2072710;28;20116;-82
2021/07/05 00:05:36;;;;;;;6.28;5.13;;;17.00;91.10;;;;;;2079431;28;20395;-82
2021/07/05 00:06:37;;;;;;;6.10;5.03;;;17.00;91.20;;;;;;2080699;28;20030;-82
2021/07/05 00:07:38;;;;;;;5.60;4.70;;;17.00;91.20;;;;;;2065819;28;20034;-83
2021/07/05 00:08:39;;;;;;;6.20;5.20;;;17.00;91.20;;;;;;2072923;28;20057;-82
2021/07/05 00:09:41;;;;;;;7.22;5.03;;;17.00;91.20;;;;;;2080269;28;20515;-82
2021/07/05 00:10:42;;;;;;;5.75;4.93;;;17.00;91.10;;;;;;2078739;28;20041;-82
2021/07/05 00:11:42;;;;;;;5.97;4.78;;;17.00;91.10;;;;;;2080821;28;20017;-82
2021/07/05 00:12:47;;;;;;;7.13;5.03;;;17.00;91.40;;;;;;2072835;28;20033;-82
2021/07/05 00:13:47;;;;;;;6.15;5.10;;;17.00;91.10;;;;;;2072282;28;20032;-82
2021/07/05 00:14:48;;;;;;;5.75;4.75;;;17.00;91.10;;;;;;2063735;28;20043;-81
2021/07/05 00:15:50;;;;;;;5.95;4.90;;;17.00;91.10;;;;;;2072844;28;20022;-82
2021/07/05 00:16:51;;;;;;;6.38;4.70;;;17.00;91.10;;;;;;2081129;28;20033;-82
2021/07/05 00:17:58;;;;;;;5.43;4.50;;;17.00;91.10;;;;;;2081062;28;20060;-83
2021/07/05 00:18:59;;;;;;;5.45;4.43;;;17.00;91.10;;;;;;2080869;28;20021;-82
2021/07/05 00:19:59;;;;;;;5.07;4.57;;;17.00;91.10;;;;;;2072565;28;20034;-83
2021/07/05 00:21:00;;;;;;;5.35;4.35;;;17.00;91.10;;;;;;2064891;28;20038;-82
2021/07/05 00:22:01;;;;;;;4.93;4.30;;;17.00;91.10;;;;;;2070000;28;20133;-82
2021/07/05 00:23:01;;;;;;;5.20;4.47;;;16.90;91.00;;;;;;2081099;28;20037;-82
2021/07/05 00:24:03;;;;;;;4.75;3.97;;;16.90;91.00;;;;;;2072790;28;20179;-82
2021/07/05 00:25:05;;;;;;;4.78;4.00;;;16.90;91.30;;;;;;2072188;28;20022;-82
2021/07/05 00:26:06;;;;;;;4.75;4.10;;;17.00;91.10;;;;;;2064875;28;20031;-82
2021/07/05 00:27:06;;;;;;;5.30;4.05;;;17.00;91.10;;;;;;2059318;28;20102;-82
2021/07/05 00:28:07;;;;;;;5.25;4.22;;;16.90;91.00;;;;;;2065161;28;20053;-83
2021/07/05 00:29:08;;;;;;;5.40;4.35;;;17.00;91.00;;;;;;2072751;28;20496;-82
2021/07/05 00:30:09;;;;;;;5.05;4.05;;;16.90;91.00;;;;;;2076438;28;20419;-82
2021/07/05 00:31:10;;;;;;;5.40;4.03;;;17.00;91.00;;;;;;2085832;28;20029;-82
2021/07/05 00:32:11;;;;;;;5.10;4.20;;;16.90;91.00;;;;;;2072056;28;20026;-82
2021/07/05 00:33:11;;;;;;;4.78;4.10;;;16.90;91.00;;;;;;2073160;28;20038;-82
2021/07/05 00:34:12;;;;;;;4.95;4.15;;;16.90;91.00;;;;;;2058000;28;20066;-82
2021/07/05 00:35:15;;;;;;;4.68;3.90;;;16.90;91.00;;;;;;2064934;28;20025;-83
2021/07/05 00:36:16;;;;;;;4.95;4.00;;;16.90;91.00;;;;;;2082412;28;20030;-82
2021/07/05 00:37:16;;;;;;;5.00;4.00;;;16.90;91.00;;;;;;2073543;28;20046;-82
2021/07/05 00:38:17;;;;;;;4.38;3.88;;;16.90;91.00;;;;;;2072730;28;20034;-82
2021/07/05 00:39:17;;;;;;;4.18;3.60;;;16.90;91.00;;;;;;2072776;28;20134;-82
2021/07/05 00:40:19;;;;;;;4.85;3.70;;;16.90;91.00;;;;;;2072861;28;20038;-82
2021/07/05 00:41:20;;;;;;;4.75;3.60;;;16.90;91.00;;;;;;2081293;28;20141;-82
2021/07/05 00:42:20;;;;;;;4.38;3.60;;;16.90;91.00;;;;;;2072961;28;20505;-82
2021/07/05 00:43:21;;;;;;;4.00;3.50;;;16.90;91.00;;;;;;2080833;28;20065;-83
2021/07/05 00:44:22;;;;;;;4.50;3.53;;;16.90;91.00;;;;;;2072144;28;20033;-81
2021/07/05 00:45:24;;;;;;;4.30;3.65;;;16.90;91.00;;;;;;2063881;28;20130;-82
2021/07/05 00:46:26;;;;;;;4.45;3.50;;;16.90;91.00;;;;;;2056513;28;20031;-82
2021/07/05 00:47:26;;;;;;;5.30;3.30;;;16.90;91.00;;;;;;2065610;28;20175;-82
2021/07/05 00:48:27;;;;;;;4.10;3.40;;;16.90;91.00;;;;;;2073982;28;20034;-83
2021/07/05 00:49:28;;;;;;;4.43;3.70;;;16.90;91.30;;;;;;2083048;28;20033;-82
2021/07/05 00:50:29;;;;;;;4.65;3.40;;;16.90;91.00;;;;;;2074503;28;20071;-82
2021/07/05 00:51:30;;;;;;;3.90;3.40;;;16.90;91.00;;;;;;2066119;28;20030;-82
2021/07/05 00:52:32;;;;;;;4.35;3.30;;;16.90;91.00;;;;;;2065504;28;20117;-81
2021/07/05 00:53:33;;;;;;;4.30;3.22;;;16.90;91.00;;;;;;2073788;28;20034;-82
2021/07/05 00:54:34;;;;;;;5.57;3.25;;;16.90;91.00;;;;;;2074335;28;20121;-82
2021/07/05 00:55:35;;;;;;;4.00;3.20;;;16.90;91.00;;;;;;2082425;28;20094;-82
2021/07/05 00:56:36;;;;;;;3.85;3.05;;;16.90;91.00;;;;;;2082557;28;20099;-82
2021/07/05 00:57:37;;;;;;;3.42;2.95;;;16.90;91.00;;;;;;2073951;28;20029;-82
2021/07/05 00:58:39;;;;;;;3.60;3.00;;;16.90;91.00;;;;;;2066053;28;20034;-82
2021/07/05 00:59:39;;;;;;;4.32;2.97;;;16.90;91.20;;;;;;2081931;28;20048;-82
2021/07/05 01:00:40;;;;;;;4.18;3.10;;;16.90;91.00;;;;;;2082445;28;20036;-82
2021/07/05 01:01:41;;;;;;;3.30;2.70;;;16.90;91.00;;;;;;2073893;28;20420;-82
2021/07/05 01:02:43;;;;;;;3.67;2.70;;;16.90;90.90;;;;;;2073793;28;20021;-82
2021/07/05 01:03:44;;;;;;;3.67;2.70;;;16.90;91.00;;;;;;2073736;28;20048;-82
2021/07/05 01:04:45;;;;;;;3.15;2.42;;;16.90;91.00;;;;;;2073595;28;20556;-82
2021/07/05 01:05:46;;;;;;;3.22;2.45;;;16.90;90.90;;;;;;2065736;28;20393;-82
2021/07/05 01:06:46;;;;;;;3.20;2.60;;;16.90;91.00;;;;;;2067497;28;20042;-82
2021/07/05 01:07:47;;;;;;;3.85;2.72;;;16.90;91.00;;;;;;2073830;28;20030;-82
2021/07/05 01:08:48;;;;;;;2.78;2.38;;;16.90;90.90;;;;;;2076382;28;20022;-82
2021/07/05 01:09:49;;;;;;;4.53;2.50;;;17.00;91.00;;;;;;2082276;28;20116;-82
2021/07/05 01:10:50;;;;;;;5.15;2.60;;;17.00;91.00;;;;;;2082462;28;20034;-82
2021/07/05 01:11:50;;;;;;;3.78;2.50;;;17.00;91.00;;;;;;2074229;28;20050;-82
2021/07/05 01:12:53;;;;;;;3.17;2.28;;;17.00;91.00;;;;;;2080370;28;20399;-81
2021/07/05 01:13:54;;;;;;;3.47;2.67;;;17.00;90.90;;;;;;2073686;28;20125;-82
2021/07/05 01:14:55;;;;;;;4.00;2.92;;;17.00;90.90;;;;;;2071048;28;20038;-82
2021/07/05 01:15:55;;;;;;;3.88;2.55;;;17.00;90.90;;;;;;2073369;28;20041;-82
2021/07/05 01:16:56;;;;;;;3.17;2.58;;;17.00;91.00;;;;;;2073201;28;20026;-83
2021/07/05 01:18:00;;;;;;;4.25;2.60;;;17.00;91.00;;;;;;2057815;28;20501;-82
2021/07/05 01:19:01;;;;;;;2.95;2.20;;;17.00;91.00;;;;;;2066775;28;20050;-82
2021/07/05 01:20:04;;;;;;;3.00;2.35;;;17.00;91.00;;;;;;2073540;28;20037;-82
2021/07/05 01:21:05;;;;;;;3.40;2.60;;;17.00;91.00;;;;;;2082176;28;20037;-83
2021/07/05 01:22:06;;;;;;;3.03;2.15;;;17.00;90.90;;;;;;2080645;28;20040;-83
2021/07/05 01:23:11;;;;;;;3.00;2.10;;;17.00;90.90;;;;;;2065791;28;20433;-82
2021/07/05 01:24:12;;;;;;;3.28;2.33;;;17.00;90.90;;;;;;2058648;28;20027;-83
2021/07/05 01:25:16;;;;;;;3.03;2.40;;;17.00;90.90;;;;;;2073407;28;20507;-83
2021/07/05 01:26:16;;;;;;;2.90;2.13;;;17.00;90.90;;;;;;2081693;28;20112;-82
2021/07/05 01:27:18;;;;;;;3.35;2.33;;;17.00;90.90;;;;;;2081706;28;20021;-82
2021/07/05 01:28:19;;;;;;;3.33;2.33;;;17.00;90.80;;;;;;2072287;28;20041;-82
2021/07/05 01:29:19;;;;;;;3.03;2.30;;;17.00;91.10;;;;;;2073964;28;20400;-83
2021/07/05 01:30:22;;;;;;;3.15;2.47;;;17.00;90.80;;;;;;2082597;28;20479;-83
2021/07/05 01:31:23;;;;;;;3.70;2.40;;;17.00;90.80;;;;;;2076361;28;20104;-82
2021/07/05 01:32:23;;;;;;;3.03;2.10;;;17.00;90.80;;;;;;2073881;28;20545;-83
2021/07/05 01:33:24;;;;;;;3.35;2.30;;;17.00;90.80;;;;;;2065865;28;20048;-82
2021/07/05 01:34:25;;;;;;;2.65;2.10;;;17.00;90.80;;;;;;2049664;28;20046;-83
2021/07/05 01:35:26;;;;;;;3.28;2.30;;;17.10;90.80;;;;;;2057647;28;20023;-82
2021/07/05 01:36:27;;;;;;;2.70;2.03;;;17.00;90.70;;;;;;2081515;28;20025;-83
2021/07/05 01:37:28;;;;;;;2.67;2.00;;;17.00;90.70;;;;;;2073091;28;20498;-83
2021/07/05 01:38:28;;;;;;;2.80;2.20;;;17.00;90.70;;;;;;2065821;28;20030;-83
2021/07/05 01:39:29;;;;;;;3.47;2.30;;;17.00;91.00;;;;;;2065246;28;20045;-82
2021/07/05 01:40:31;;;;;;;3.22;1.98;;;17.00;90.70;;;;;;2073872;28;20037;-83
2021/07/05 01:41:31;;;;;;;3.25;2.10;;;17.00;90.70;;;;;;2076475;28;20112;-81
2021/07/05 01:42:32;;;;;;;3.35;2.22;;;17.00;90.70;;;;;;2068456;28;20042;-83
2021/07/05 01:43:33;;;;;;;3.40;2.10;;;17.00;90.70;;;;;;2065985;28;20033;-82
2021/07/05 01:44:34;;;;;;;3.00;1.98;;;16.90;90.70;;;;;;2065630;28;20026;-82
2021/07/05 01:45:35;;;;;;;2.30;1.83;;;17.00;90.70;;;;;;2065533;28;20023;-82
2021/07/05 01:46:36;;;;;;;3.92;2.20;;;16.90;90.70;;;;;;2049613;28;20038;-83
2021/07/05 01:47:36;;;;;;;2.63;1.92;;;17.00;90.80;;;;;;2057541;28;20034;-83
2021/07/05 01:48:37;;;;;;;3.00;2.10;;;16.90;90.70;;;;;;2061192;28;20026;-82
2021/07/05 01:49:39;;;;;;;3.45;2.05;;;17.00;90.80;;;;;;2057264;28;20524;-82
2021/07/05 01:50:40;;;;;;;2.80;2.00;;;17.00;90.80;;;;;;2064930;28;20078;-82
2021/07/05 01:51:40;;;;;;;2.33;1.70;;;17.00;90.80;;;;;;2068764;28;20018;-83
2021/07/05 01:52:41;;;;;;;2.85;2.03;;;17.00;90.80;;;;;;2073684;28;20468;-82
2021/07/05 01:53:42;;;;;;;2.70;1.80;;;16.90;90.80;;;;;;2075274;28;23203;-82
2021/07/05 01:54:43;;;;;;;2.95;2.13;;;17.00;90.90;;;;;;2067892;28;20034;-82
2021/07/05 01:55:44;;;;;;;3.72;2.22;;;16.90;90.80;;;;;;2075973;28;20447;-84
2021/07/05 01:56:45;;;;;;;2.47;1.77;;;17.00;90.90;;;;;;2098788;28;20031;-82
2021/07/05 01:57:46;;;;;;;2.50;1.90;;;16.90;90.80;;;;;;2091363;28;20026;-82
2021/07/05 01:58:47;;;;;;;3.08;2.05;;;16.90;90.80;;;;;;2074037;28;20065;-82
2021/07/05 01:59:47;;;;;;;2.97;2.20;;;16.90;90.90;;;;;;2074481;28;20050;-82
2021/07/05 02:00:49;;;;;;;2.50;1.90;;;16.90;90.90;;;;;;2068594;28;20472;-82
2021/07/05 02:01:50;;;;;;;2.25;1.80;;;16.90;90.90;;;;;;2076240;28;20048;-83
2021/07/05 02:02:52;;;;;;;2.92;1.90;;;16.90;90.80;;;;;;2083398;28;20052;-82
2021/07/05 02:03:53;;;;;;;2.83;1.80;;;16.90;90.80;;;;;;2075090;28;20026;-83
2021/07/05 02:04:54;;;;;;;2.25;1.80;;;16.90;90.80;;;;;;2051024;28;20024;-83
2021/07/05 02:05:55;;;;;;;2.90;1.90;;;17.00;90.80;;;;;;2069347;28;20499;-84
2021/07/05 02:06:55;;;;;;;2.25;1.60;;;16.90;90.80;;;;;;2074591;28;20062;-81
2021/07/05 02:07:56;;;;;;;2.63;1.85;;;16.90;90.80;;;;;;2075000;28;20055;-82
2021/07/05 02:08:57;;;;;;;2.70;1.88;;;16.90;90.80;;;;;;2081170;28;20066;-83
2021/07/05 02:09:58;;;;;;;3.13;1.75;;;16.90;90.80;;;;;;2090567;28;20036;-82
2021/07/05 02:10:58;;;;;;;2.78;1.90;;;17.00;90.80;;;;;;2087638;28;20105;-83
2021/07/05 02:11:59;;;;;;;2.10;1.73;;;17.00;90.80;;;;;;2065673;28;20129;-82
2021/07/05 02:13:09;;;;;;;2.22;1.67;;;17.00;90.80;;;;;;2056587;28;20452;-83
2021/07/05 02:14:09;;;;;;;2.63;1.63;;;17.00;90.80;;;;;;2074713;28;20049;-83
2021/07/05 02:15:13;;;;;;;2.58;1.60;;;17.00;90.70;;;;;;2073892;28;20132;-83
2021/07/05 02:16:14;;;;;;;2.35;1.70;;;17.00;90.70;;;;;;2065995;28;20026;-83
2021/07/05 02:17:15;;;;;;;2.00;1.65;;;16.90;90.70;;;;;;2065623;28;20038;-82
2021/07/05 02:18:16;;;;;;;2.28;1.52;;;16.90;90.70;;;;;;2073321;28;20029;-83
2021/07/05 02:19:18;;;;;;;2.95;1.70;;;16.90;90.70;;;;;;2065946;28;20026;-82
2021/07/05 02:20:22;;;;;;;2.70;1.70;;;16.90;90.70;;;;;;2065780;28;20047;-83
2021/07/05 02:21:23;;;;;;;2.35;1.75;;;16.90;90.70;;;;;;2081571;28;20026;-82
2021/07/05 02:22:23;;;;;;;1.92;1.58;;;16.90;90.70;;;;;;2080400;28;20063;-83
2021/07/05 02:23:24;;;;;;;2.00;1.60;;;16.90;90.70;;;;;;2064367;28;20529;-82
2021/07/05 02:24:25;;;;;;;2.15;1.65;;;16.90;90.70;;;;;;2068260;28;20027;-83
2021/07/05 02:25:29;;;;;;;1.80;1.40;;;16.90;90.80;;;;;;2068246;28;20085;-83
2021/07/05 02:26:30;;;;;;;2.38;1.70;;;16.90;90.80;;;;;;2073456;28;20033;-83
2021/07/05 02:27:30;;;;;;;3.13;1.60;;;16.90;90.80;;;;;;2083166;28;20033;-82
2021/07/05 02:28:34;;;;;;;2.30;1.70;;;16.80;90.80;;;;;;2081857;28;20101;-82
2021/07/05 02:29:35;;;;;;;2.15;1.70;;;16.80;90.80;;;;;;2082079;28;20044;-83
2021/07/05 02:30:37;;;;;;;2.78;1.90;;;16.80;90.80;;;;;;2084010;28;20056;-82
2021/07/05 02:31:37;;;;;;;3.15;1.65;;;16.80;90.90;;;;;;2082847;28;20029;-83
2021/07/05 02:32:41;;;;;;;2.85;2.10;;;16.80;91.10;;;;;;2072622;28;20041;-82
2021/07/05 02:33:41;;;;;;;2.60;1.75;;;16.90;90.90;;;;;;2071394;28;20037;-82
2021/07/05 02:34:42;;;;;;;5.30;1.83;;;16.80;90.80;;;;;;2081514;28;20025;-83
2021/07/05 02:35:43;;;;;;;3.00;1.80;;;16.90;90.80;;;;;;2081619;28;20034;-83
2021/07/05 02:36:44;;;;;;;2.30;1.70;;;16.90;90.80;;;;;;2073243;28;20044;-82
2021/07/05 02:37:47;;;;;;;2.63;1.83;;;16.90;90.80;;;;;;2073337;28;20074;-82
2021/07/05 02:38:48;;;;;;;2.58;2.03;;;16.90;90.80;;;;;;2073213;28;20018;-83
2021/07/05 02:39:49;;;;;;;2.78;1.92;;;16.90;90.80;;;;;;2065428;28;20050;-82
2021/07/05 02:40:54;;;;;;;2.70;1.90;;;16.90;90.80;;;;;;2073035;28;20635;-83
2021/07/05 02:41:55;;;;;;;3.13;1.92;;;16.90;90.80;;;;;;2066810;28;20015;-82
2021/07/05 02:42:56;;;;;;;2.60;2.10;;;16.90;90.80;;;;;;2065004;28;20026;-82
2021/07/05 02:43:57;;;;;;;3.28;2.10;;;16.90;90.80;;;;;;2079852;28;20032;-82
2021/07/05 02:44:58;;;;;;;2.70;2.00;;;16.90;90.80;;;;;;2088756;28;20305;-83
2021/07/05 02:45:59;;;;;;;3.10;2.03;;;16.90;90.80;;;;;;2073296;28;20564;-82
2021/07/05 02:47:00;;;;;;;4.07;2.28;;;16.90;90.80;;;;;;2073189;28;20025;-82
2021/07/05 02:48:03;;;;;;;3.63;2.10;;;16.90;90.80;;;;;;2072584;28;20370;-83
2021/07/05 02:49:04;;;;;;;4.13;2.00;;;16.90;90.80;;;;;;2073719;28;20081;-83
2021/07/05 02:50:07;;;;;;;2.90;1.98;;;16.90;90.80;;;;;;2072918;28;20029;-82
2021/07/05 02:51:09;;;;;;;3.25;2.10;;;16.90;90.80;;;;;;2073190;28;20034;-83
2021/07/05 02:52:09;;;;;;;3.03;2.00;;;16.90;90.80;;;;;;2072838;28;20034;-83
2021/07/05 02:53:11;;;;;;;5.53;2.00;;;16.90;90.80;;;;;;2066526;28;20026;-83
2021/07/05 02:54:12;;;;;;;3.10;2.17;;;16.90;90.80;;;;;;2073402;28;20030;-82
2021/07/05 02:55:14;;;;;;;2.80;2.10;;;16.90;90.80;;;;;;2063718;28;20504;-83
2021/07/05 02:56:15;;;;;;;3.10;1.90;;;16.90;90.80;;;;;;2065564;28;20022;-83
2021/07/05 02:57:30;;;;;;;2.35;1.80;;;16.90;90.80;;;;;;2073162;28;20033;-83
2021/07/05 02:58:33;;;;;;;2.88;2.20;;;16.90;90.80;;;;;;2075233;28;20551;-82
2021/07/05 02:59:33;;;;;;;3.03;1.92;;;16.90;90.80;;;;;;2064162;28;20092;-82
2021/07/05 03:00:38;;;;;;;4.10;1.98;;;16.90;90.80;;;;;;2072944;28;20450;-82
2021/07/05 03:01:39;;;;;;;2.28;1.88;;;16.90;90.80;;;;;;2081263;28;20029;-82
2021/07/05 03:02:40;;;;;;;3.33;2.25;;;16.90;90.80;;;;;;2065083;28;20199;-82
2021/07/05 03:03:41;;;;;;;2.40;2.03;;;16.90;90.80;;;;;;2073222;28;20029;-82
2021/07/05 03:04:41;;;;;;;2.85;2.00;;;16.90;90.80;;;;;;2072787;28;20395;-81
2021/07/05 03:05:42;;;;;;;3.03;2.10;;;16.90;90.80;;;;;;2073160;28;20064;-82
2021/07/05 03:06:43;;;;;;;2.55;2.03;;;16.90;90.90;;;;;;2081020;28;20033;-82
2021/07/05 03:07:44;;;;;;;3.33;2.13;;;16.90;90.80;;;;;;2073154;28;20097;-82
2021/07/05 03:08:44;;;;;;;3.05;2.28;;;16.90;90.90;;;;;;2065199;28;20049;-82
2021/07/05 03:09:45;;;;;;;3.17;2.33;;;16.90;90.90;;;;;;2068188;28;20470;-82
2021/07/05 03:10:46;;;;;;;2.65;2.15;;;16.90;90.90;;;;;;2068241;28;20030;-83
2021/07/05 03:11:47;;;;;;;3.88;2.47;;;16.90;90.80;;;;;;2060796;28;20021;-82
2021/07/05 03:12:48;;;;;;;5.03;2.25;;;16.90;90.80;;;;;;2074913;28;20694;-82
2021/07/05 03:13:49;;;;;;;4.00;2.63;;;16.80;90.80;;;;;;2064619;28;20042;-82
2021/07/05 03:14:49;;;;;;;2.85;2.30;;;16.80;90.80;;;;;;2056896;28;20042;-82
2021/07/05 03:15:52;;;;;;;2.95;2.40;;;16.80;90.80;;;;;;2073227;28;20026;-82
2021/07/05 03:16:53;;;;;;;2.95;2.58;;;16.80;90.80;;;;;;2081602;28;20037;-82
2021/07/05 03:17:53;;;;;;;3.30;2.40;;;16.80;90.80;;;;;;2080124;28;20108;-82
2021/07/05 03:18:54;;;;;;;2.83;2.30;;;16.90;90.80;;;;;;2073002;28;20033;-82
2021/07/05 03:19:55;;;;;;;3.30;2.35;;;16.80;90.80;;;;;;2064903;28;20048;-82
2021/07/05 03:20:56;;;;;;;3.15;2.20;;;16.80;90.80;;;;;;2049098;28;20038;-82
2021/07/05 03:21:57;;;;;;;3.17;2.47;;;16.80;90.80;;;;;;2057142;28;20031;-82
2021/07/05 03:22:59;;;;;;;2.85;2.20;;;16.80;90.90;;;;;;2073136;28;20080;-82
2021/07/05 03:24:00;;;;;;;2.85;2.40;;;16.80;90.90;;;;;;2080921;28;20100;-82
2021/07/05 03:25:02;;;;;;;2.67;2.28;;;16.80;90.80;;;;;;2072619;28;20029;-82
2021/07/05 03:26:03;;;;;;;2.85;2.30;;;16.80;90.80;;;;;;2065096;28;20038;-82
2021/07/05 03:27:04;;;;;;;3.20;2.20;;;16.80;90.80;;;;;;2058050;28;20034;-82
2021/07/05 03:28:07;;;;;;;2.58;2.10;;;16.80;90.90;;;;;;2065009;28;20599;-82
2021/07/05 03:29:08;;;;;;;2.78;2.22;;;16.80;90.90;;;;;;2073159;28;20507;-82
2021/07/05 03:30:11;;;;;;;2.70;2.20;;;16.80;90.90;;;;;;2080727;28;20030;-82
2021/07/05 03:31:12;;;;;;;3.55;2.00;;;16.80;90.90;;;;;;2081279;28;20029;-82
2021/07/05 03:32:13;;;;;;;3.08;2.28;;;16.90;90.90;;;;;;2080037;28;20468;-82
2021/07/05 03:33:13;;;;;;;2.80;2.28;;;16.90;90.90;;;;;;2073041;28;20529;-82
2021/07/05 03:34:14;;;;;;;2.75;2.10;;;16.80;90.90;;;;;;2072382;28;20018;-81
2021/07/05 03:35:17;;;;;;;3.92;2.28;;;16.90;91.10;;;;;;2064884;28;20034;-82
2021/07/05 03:36:17;;;;;;;3.03;2.10;;;16.80;90.80;;;;;;2073088;28;20040;-83
2021/07/05 03:37:18;;;;;;;3.13;2.40;;;16.90;90.80;;;;;;2056759;28;20038;-82
2021/07/05 03:38:20;;;;;;;2.58;2.15;;;16.80;90.80;;;;;;2056795;28;20134;-82
2021/07/05 03:39:21;;;;;;;2.78;2.03;;;16.90;90.80;;;;;;2080994;28;20461;-82
2021/07/05 03:40:29;;;;;;;3.17;2.17;;;16.90;90.80;;;;;;2080056;28;20117;-82
2021/07/05 03:41:30;;;;;;;2.95;2.00;;;16.90;90.80;;;;;;2080987;28;20056;-82
2021/07/05 03:42:31;;;;;;;3.50;2.28;;;16.80;90.80;;;;;;2064691;28;20030;-82
2021/07/05 03:43:31;;;;;;;2.30;1.90;;;16.90;90.80;;;;;;2064274;28;20034;-82
2021/07/05 03:44:32;;;;;;;2.95;2.20;;;16.90;90.80;;;;;;2072930;28;20029;-82
2021/07/05 03:45:34;;;;;;;2.67;2.17;;;16.90;90.80;;;;;;2072353;28;20061;-82
2021/07/05 03:46:36;;;;;;;2.80;2.10;;;16.90;90.90;;;;;;2072870;28;20061;-82
2021/07/05 03:47:37;;;;;;;2.78;2.10;;;16.80;90.90;;;;;;2073102;28;20026;-82
2021/07/05 03:48:37;;;;;;;2.50;2.00;;;16.90;90.90;;;;;;2084258;28;20116;-82
2021/07/05 03:49:38;;;;;;;2.95;2.05;;;16.90;90.90;;;;;;2072933;28;20064;-82
2021/07/05 03:50:40;;;;;;;2.40;2.10;;;16.90;90.90;;;;;;2068018;28;20045;-82
2021/07/05 03:51:40;;;;;;;3.58;2.40;;;16.90;90.90;;;;;;2064230;28;20038;-82
2021/07/05 03:52:41;;;;;;;2.58;2.00;;;16.90;90.90;;;;;;2079094;28;20513;-83
2021/07/05 03:53:42;;;;;;;3.75;2.30;;;16.90;90.80;;;;;;2072927;28;20061;-83
2021/07/05 03:54:43;;;;;;;2.53;2.05;;;16.90;91.10;;;;;;2072872;28;20069;-82
2021/07/05 03:55:44;;;;;;;2.30;1.85;;;16.90;90.80;;;;;;2072597;28;20064;-82
2021/07/05 03:56:45;;;;;;;3.33;2.20;;;16.90;90.80;;;;;;2072780;28;20081;-82
2021/07/05 03:57:46;;;;;;;3.15;2.20;;;16.90;90.80;;;;;;2069581;28;20526;-82
2021/07/05 03:58:47;;;;;;;2.97;2.00;;;16.90;90.80;;;;;;2064919;28;20026;-82
2021/07/05 03:59:49;;;;;;;3.58;2.10;;;16.90;90.80;;;;;;2064695;28;20426;-82
2021/07/05 04:00:50;;;;;;;3.13;2.28;;;16.90;90.80;;;;;;2069023;28;20472;-82
2021/07/05 04:01:51;;;;;;;2.90;2.03;;;16.90;90.80;;;;;;2080974;28;20030;-82
2021/07/05 04:02:52;;;;;;;3.92;2.05;;;16.80;90.80;;;;;;2080874;28;20075;-82
2021/07/05 04:03:53;;;;;;;3.75;2.17;;;16.80;90.80;;;;;;2080507;28;20029;-82
2021/07/05 04:04:56;;;;;;;4.45;2.45;;;16.80;90.80;;;;;;2072673;28;20029;-82
2021/07/05 04:05:58;;;;;;;5.80;2.55;;;16.80;90.80;;;;;;2067139;28;20031;-82
2021/07/05 04:06:59;;;;;;;3.40;2.15;;;16.70;90.80;;;;;;2080885;28;20462;-82
2021/07/05 04:08:01;;;;;;;3.22;2.00;;;16.70;90.90;;;;;;2081005;28;20037;-82
2021/07/05 04:09:04;;;;;;;3.92;2.05;;;16.70;90.90;;;;;;2077486;28;20514;-82
2021/07/05 04:10:06;;;;;;;3.25;1.83;;;16.70;90.90;;;;;;2080810;28;20021;-82
2021/07/05 04:11:07;;;;;;;3.22;1.88;;;16.60;90.90;;;;;;2079273;28;20030;-82
2021/07/05 04:12:10;;;;;;;3.95;2.25;;;16.60;91.00;;;;;;2071754;28;20026;-81
2021/07/05 04:13:11;;;;;;;3.40;1.90;;;16.60;91.00;;;;;;2079568;28;20380;-82
2021/07/05 04:14:11;;;;;;;5.03;2.08;;;16.50;91.00;;;;;;2080413;28;20053;-82
2021/07/05 04:15:13;;;;;;;3.40;1.70;;;16.50;91.00;;;;;;2080761;28;20145;-82
2021/07/05 04:16:14;;;;;;;3.45;1.67;;;16.40;91.10;;;;;;2072787;28;20026;-82
2021/07/05 04:17:14;;;;;;;2.85;1.88;;;16.40;91.10;;;;;;2080769;28;20079;-82
2021/07/05 04:18:15;;;;;;;2.85;1.80;;;16.40;91.20;;;;;;2072389;28;20030;-81
2021/07/05 04:19:16;;;;;;;3.60;1.63;;;16.40;91.20;;;;;;2063895;28;20077;-81
2021/07/05 04:20:20;;;;;;;3.65;1.88;;;16.30;91.20;;;;;;2072494;28;20089;-82
2021/07/05 04:21:25;;;;;;;2.65;1.50;;;16.30;91.30;;;;;;2080242;28;20072;-82
2021/07/05 04:22:26;;;;;;;2.65;1.40;;;16.30;91.30;;;;;;2079837;28;20132;-81
2021/07/05 04:23:27;;;;;;;3.53;1.73;;;16.20;91.40;;;;;;2081971;28;20490;-82
2021/07/05 04:24:28;;;;;;;3.50;1.60;;;16.30;91.40;;;;;;2082810;28;20029;-83
2021/07/05 04:25:28;;;;;;;4.00;1.70;;;16.20;91.40;;;;;;2082375;28;20128;-82
2021/07/05 04:26:30;;;;;;;1.90;1.27;;;16.20;91.40;;;;;;2065759;28;20136;-82
2021/07/05 04:27:31;;;;;;;2.53;1.33;;;16.20;91.50;;;;;;2072343;28;20041;-82
2021/07/05 04:28:31;;;;;;;2.08;1.30;;;16.20;91.50;;;;;;2085786;28;20703;-82
2021/07/05 04:29:32;;;;;;;1.77;1.33;;;16.20;91.50;;;;;;2074093;28;20428;-82
2021/07/05 04:30:33;;;;;;;4.43;1.70;;;16.10;91.50;;;;;;2071890;28;20566;-82
2021/07/05 04:31:34;;;;;;;2.90;1.50;;;16.10;91.50;;;;;;2076608;28;20029;-82
2021/07/05 04:32:37;;;;;;;2.17;1.17;;;16.10;91.50;;;;;;2073783;28;20547;-82
2021/07/05 04:33:38;;;;;;;2.88;1.23;;;16.10;91.60;;;;;;2074918;28;20026;-82
2021/07/05 04:34:38;;;;;;;2.95;1.30;;;16.00;91.50;;;;;;2073884;28;20049;-82
2021/07/05 04:35:39;;;;;;;2.30;1.20;;;16.00;91.50;;;;;;2074189;28;20490;-82
2021/07/05 04:36:40;;;;;;;3.17;1.33;;;15.90;91.60;;;;;;2071433;28;20072;-82
2021/07/05 04:37:42;;;;;;;2.38;1.20;;;16.00;91.60;;;;;;2066256;28;20045;-82
2021/07/05 04:38:43;;;;;;;1.95;1.15;;;15.90;91.60;;;;;;2074415;28;20034;-82
2021/07/05 04:39:44;;;;;;;1.90;1.00;;;15.90;91.60;;;;;;2074228;28;20034;-82
2021/07/05 04:40:44;;;;;;;1.88;1.20;;;15.90;91.70;;;;;;2072081;28;20038;-82
2021/07/05 04:41:45;;;;;;;1.33;1.00;;;15.90;91.70;;;;;;2075149;28;20036;-81
2021/07/05 04:42:46;;;;;;;2.85;1.10;;;15.90;91.70;;;;;;2082412;28;20533;-81
2021/07/05 04:43:47;;;;;;;2.08;1.15;;;15.80;91.70;;;;;;2075096;28;20428;-82
2021/07/05 04:44:50;;;;;;;2.30;1.05;;;15.80;91.70;;;;;;2058300;28;20023;-82
2021/07/05 04:45:54;;;;;;;1.45;0.85;;;15.80;91.70;;;;;;2050208;28;20137;-82
2021/07/05 04:46:54;;;;;;;2.25;1.00;;;15.80;91.70;;;;;;2067102;28;20031;-81
2021/07/05 04:47:57;;;;;;;2.30;1.08;;;15.80;91.90;;;;;;2066592;28;20517;-82
2021/07/05 04:48:57;;;;;;;1.15;0.90;;;15.70;91.70;;;;;;2058285;28;20027;-82
2021/07/05 04:49:58;;;;;;;2.42;1.05;;;15.70;91.70;;;;;;2074412;28;20100;-82
2021/07/05 04:51:00;;;;;;;2.42;1.00;;;15.70;91.70;;;;;;2068157;28;20194;-81
2021/07/05 04:52:00;;;;;;;2.03;1.00;;;15.70;91.70;;;;;;2073840;28;20029;-82
2021/07/05 04:53:02;;;;;;;1.75;0.93;;;15.70;91.70;;;;;;2066303;28;20377;-82
2021/07/05 04:54:03;;;;;;;1.92;0.80;;;15.70;91.70;;;;;;2071295;28;20018;-82
2021/07/05 04:55:05;;;;;;;1.40;0.88;;;15.60;91.70;;;;;;2073786;28;20103;-82
2021/07/05 04:56:06;;;;;;;1.67;0.82;;;15.70;91.80;;;;;;2083028;28;20025;-81
2021/07/05 04:57:10;;;;;;;1.30;0.90;;;15.60;91.80;;;;;;2082384;28;20056;-82
2021/07/05 04:58:11;;;;;;;1.30;0.90;;;15.60;91.80;;;;;;2073625;28;20022;-82
2021/07/05 04:59:14;;;;;;;1.67;0.80;;;15.60;91.80;;;;;;2059250;28;20056;-82
2021/07/05 05:00:19;;;;;;;1.30;0.90;;;15.60;91.80;;;;;;2064755;28;20030;-82
2021/07/05 05:01:19;;;;;;;1.35;0.80;;;15.60;91.80;;;;;;2069862;28;20037;-81
2021/07/05 05:02:23;;;;;;;1.75;1.00;;;15.60;91.80;;;;;;2065530;28;20094;-82
2021/07/05 05:03:24;;;;;;;1.70;1.05;;;15.60;91.80;;;;;;2070487;28;20022;-81
2021/07/05 05:04:24;;;;;;;2.53;1.15;;;15.60;91.80;;;;;;2074245;28;20073;-82
2021/07/05 05:05:25;;;;;;;1.45;0.93;;;15.60;91.80;;;;;;2074017;28;20523;-82
2021/07/05 05:06:26;;;;;;;1.58;1.00;;;15.60;91.80;;;;;;2082514;28;20029;-82
2021/07/05 05:07:27;;;;;;;1.15;0.93;;;15.60;91.90;;;;;;2082072;28;20491;-82
2021/07/05 05:08:27;;;;;;;1.98;1.00;;;15.60;91.90;;;;;;2080709;28;20541;-82
2021/07/05 05:09:28;;;;;;;1.90;1.00;;;15.50;91.80;;;;;;2073135;28;20030;-82
2021/07/05 05:10:29;;;;;;;2.85;1.10;;;15.50;91.80;;;;;;2073533;28;20076;-81
2021/07/05 05:11:29;;;;;;;1.70;1.00;;;15.50;91.90;;;;;;2072572;28;20456;-82
2021/07/05 05:12:30;;;;;;;2.58;0.90;;;15.50;91.90;;;;;;2065096;28;20058;-81
2021/07/05 05:13:31;;;;;;;1.77;0.98;;;15.50;91.90;;;;;;2065711;28;20045;-82
2021/07/05 05:14:32;;;;;;;1.23;0.98;;;15.50;92.00;;;;;;2073745;28;20072;-82
2021/07/05 05:15:32;;;;;;;1.80;1.30;;;15.50;92.00;;;;;;2073706;28;20400;-82
2021/07/05 05:16:33;;;;;;;2.22;1.00;;;15.50;92.00;;;;;;2074184;28;20045;-82
2021/07/05 05:17:34;;;;;;;2.72;1.10;;;15.50;91.90;;;;;;2073730;28;20026;-82
2021/07/05 05:18:35;;;;;;;2.95;1.10;;;15.50;91.90;;;;;;2074605;28;20087;-82
2021/07/05 05:19:36;;;;;;;2.90;1.13;;;15.60;91.90;;;;;;2058872;28;20535;-82